createdAt,value
2018-04-06T00:00:53.053Z,12.17
2018-04-06T00:03:20.552Z,10.07
2018-04-06T00:05:48.013Z,10.17
2018-04-06T00:08:15.464Z,6.67
2018-04-06T00:10:42.936Z,9.20
2018-04-06T00:13:10.390Z,8.00
2018-04-06T00:15:37.866Z,11.20
2018-04-06T00:18:05.319Z,8.07
2018-04-06T00:20:32.801Z,16.17
2018-04-06T00:23:00.264Z,9.40
2018-04-06T00:25:27.738Z,9.70
2018-04-06T00:27:55.191Z,9.87
2018-04-06T00:30:22.663Z,8.87
2018-04-06T00:32:50.122Z,10.03
2018-04-06T00:35:17.598Z,8.70
2018-04-06T00:37:45.062Z,10.03
2018-04-06T00:40:12.530Z,9.67
2018-04-06T00:42:39.996Z,8.43
2018-04-06T00:45:07.478Z,12.80
2018-04-06T00:47:34.990Z,10.27
2018-04-06T00:50:02.437Z,11.20
2018-04-06T00:52:29.887Z,8.33
2018-04-06T00:54:57.359Z,10.43
2018-04-06T00:57:24.815Z,9.00
2018-04-06T00:59:52.308Z,9.23
2018-04-06T01:02:19.764Z,8.47
2018-04-06T01:04:47.247Z,9.33
2018-04-06T01:07:32.187Z,10.73
2018-04-06T01:10:17.422Z,10.60
2018-04-06T01:13:02.320Z,12.27
2018-04-06T01:15:47.272Z,9.60
2018-04-06T01:18:14.728Z,9.47
2018-04-06T01:20:42.214Z,10.17
2018-04-06T01:23:09.677Z,8.27
2018-04-06T01:25:37.161Z,9.83
2018-04-06T01:28:04.631Z,10.00
2018-04-06T01:30:32.104Z,8.57
2018-04-06T01:32:59.560Z,9.67
2018-04-06T01:35:27.044Z,11.27
2018-04-06T01:37:55.342Z,10.47
2018-04-06T01:40:22.821Z,9.17
2018-04-06T01:42:50.287Z,9.40
2018-04-06T01:45:17.768Z,10.83
2018-04-06T01:47:45.227Z,11.27
2018-04-06T01:50:12.711Z,13.63
2018-04-06T01:52:40.175Z,14.30
2018-04-06T01:55:07.663Z,10.23
2018-04-06T01:57:35.115Z,8.30
2018-04-06T02:00:02.600Z,7.90
2018-04-06T02:02:30.075Z,7.70
2018-04-06T02:04:57.543Z,9.33
2018-04-06T02:07:25.002Z,12.87
2018-04-06T02:09:52.461Z,9.40
2018-04-06T02:12:19.939Z,9.70
2018-04-06T02:14:47.396Z,7.47
2018-04-06T02:17:14.876Z,8.47
2018-04-06T02:19:42.335Z,7.87
2018-04-06T02:22:09.819Z,10.90
2018-04-06T02:24:37.335Z,10.00
2018-04-06T02:27:04.775Z,8.73
2018-04-06T02:29:32.231Z,11.10
2018-04-06T02:31:59.709Z,10.40
2018-04-06T02:34:27.168Z,10.80
2018-04-06T02:36:54.656Z,8.50
2018-04-06T02:39:22.115Z,10.13
2018-04-06T02:41:49.607Z,11.20
2018-04-06T02:44:17.076Z,8.60
2018-04-06T02:46:44.562Z,8.40
2018-04-06T02:49:12.088Z,12.50
2018-04-06T02:51:39.574Z,9.57
2018-04-06T02:54:07.035Z,9.53
2018-04-06T02:56:34.512Z,11.30
2018-04-06T02:59:01.973Z,13.80
2018-04-06T03:01:30.399Z,11.70
2018-04-06T03:03:57.868Z,13.30
2018-04-06T03:06:25.343Z,9.93
2018-04-06T03:08:52.802Z,9.77
2018-04-06T03:11:20.276Z,11.30
2018-04-06T03:13:47.735Z,12.33
2018-04-06T03:16:15.220Z,9.03
2018-04-06T03:18:42.681Z,11.57
2018-04-06T03:21:10.160Z,10.43
2018-04-06T03:23:37.620Z,10.80
2018-04-06T03:26:05.097Z,8.60
2018-04-06T03:28:32.555Z,9.40
2018-04-06T03:31:00.033Z,7.23
2018-04-06T03:33:27.491Z,8.57
2018-04-06T03:35:54.947Z,8.53
2018-04-06T03:38:22.415Z,9.53
2018-04-06T03:40:49.872Z,7.70
2018-04-06T03:43:17.351Z,10.07
2018-04-06T03:45:44.836Z,10.77
2018-04-06T03:48:12.310Z,10.97
2018-04-06T03:50:39.811Z,9.73
2018-04-06T03:53:07.316Z,9.67
2018-04-06T03:55:34.772Z,10.43
2018-04-06T03:58:02.261Z,10.63
2018-04-06T04:00:29.714Z,11.13
2018-04-06T04:02:57.192Z,14.47
2018-04-06T04:05:24.655Z,17.47
2018-04-06T04:07:52.139Z,15.63
2018-04-06T04:10:19.622Z,13.63
2018-04-06T04:12:47.108Z,13.47
2018-04-06T04:15:14.599Z,15.10
2018-04-06T04:17:42.078Z,19.17
2018-04-06T04:20:09.548Z,17.50
2018-04-06T04:22:37.044Z,19.83
2018-04-06T04:25:04.503Z,18.67
2018-04-06T04:27:31.988Z,21.17
2018-04-06T04:29:59.450Z,19.33
2018-04-06T04:32:26.930Z,18.70
2018-04-06T04:34:54.392Z,19.50
2018-04-06T04:37:21.889Z,20.03
2018-04-06T04:39:49.359Z,22.30
2018-04-06T04:42:16.842Z,20.80
2018-04-06T04:44:44.311Z,20.70
2018-04-06T04:47:11.791Z,20.07
2018-04-06T04:49:39.255Z,23.63
2018-04-06T04:52:06.754Z,28.97
2018-04-06T04:54:34.218Z,21.87
2018-04-06T04:57:01.723Z,19.43
2018-04-06T04:59:29.188Z,18.23
2018-04-06T05:01:56.660Z,21.70
2018-04-06T05:04:24.147Z,20.80
2018-04-06T05:06:51.611Z,26.47
2018-04-06T05:09:19.103Z,25.03
2018-04-06T05:11:46.567Z,27.53
2018-04-06T05:14:14.054Z,24.50
2018-04-06T05:16:41.520Z,23.47
2018-04-06T05:19:09.003Z,23.70
2018-04-06T05:21:36.462Z,21.43
2018-04-06T05:24:03.948Z,20.00
2018-04-06T05:26:31.411Z,32.43
2018-04-06T05:28:58.894Z,22.87
2018-04-06T05:31:26.355Z,19.77
2018-04-06T05:33:53.844Z,23.63
2018-04-06T05:36:21.307Z,20.43
2018-04-06T05:38:48.861Z,20.90
2018-04-06T05:41:16.276Z,26.77
2018-04-06T05:43:43.775Z,28.37
2018-04-06T05:46:11.256Z,21.73
2018-04-06T05:48:38.757Z,23.07
2018-04-06T05:51:06.215Z,23.43
2018-04-06T05:53:33.706Z,27.87
2018-04-06T05:56:01.180Z,29.27
2018-04-06T05:58:28.667Z,24.00
2018-04-06T06:00:56.139Z,29.80
2018-04-06T06:03:23.646Z,25.20
2018-04-06T06:05:51.341Z,27.67
2018-04-06T06:08:18.824Z,26.30
2018-04-06T06:10:46.296Z,28.77
2018-04-06T06:13:13.782Z,31.10
2018-04-06T06:15:41.264Z,28.47
2018-04-06T06:18:08.749Z,26.30
2018-04-06T06:20:36.209Z,25.23
2018-04-06T06:23:03.728Z,28.70
2018-04-06T06:25:31.196Z,25.80
2018-04-06T06:27:58.660Z,25.13
2018-04-06T06:30:26.144Z,22.43
2018-04-06T06:32:53.616Z,21.07
2018-04-06T06:35:21.195Z,19.60
2018-04-06T06:37:48.674Z,23.00
2018-04-06T06:40:16.155Z,21.37
2018-04-06T06:42:43.635Z,25.47
2018-04-06T06:45:11.127Z,21.03
2018-04-06T06:47:38.614Z,20.30
2018-04-06T06:50:06.103Z,22.73
2018-04-06T06:52:33.563Z,23.63
2018-04-06T06:55:01.047Z,23.23
2018-04-06T06:57:28.512Z,18.10
2018-04-06T06:59:55.997Z,16.17
2018-04-06T07:02:23.464Z,19.00
2018-04-06T07:04:50.964Z,18.57
2018-04-06T07:07:18.437Z,17.80
2018-04-06T07:09:45.922Z,20.63
2018-04-06T07:12:13.385Z,21.80
2018-04-06T07:14:40.890Z,20.63
2018-04-06T07:17:08.360Z,17.00
2018-04-06T07:19:35.843Z,20.37
2018-04-06T07:22:03.308Z,15.23
2018-04-06T07:24:30.795Z,14.93
2018-04-06T07:26:58.255Z,17.07
2018-04-06T07:29:25.739Z,14.60
2018-04-06T07:31:53.965Z,16.77
2018-04-06T07:34:21.452Z,16.27
2018-04-06T07:36:48.921Z,11.73
2018-04-06T07:39:16.403Z,13.97
2018-04-06T07:41:43.859Z,15.97
2018-04-06T07:44:11.377Z,17.37
2018-04-06T07:46:38.823Z,14.50
2018-04-06T07:49:06.310Z,17.10
2018-04-06T07:51:33.780Z,13.17
2018-04-06T07:54:02.236Z,12.27
2018-04-06T07:56:29.723Z,14.53
2018-04-06T07:58:57.933Z,12.23
2018-04-06T08:01:25.422Z,13.10
2018-04-06T08:03:52.889Z,11.07
2018-04-06T08:06:20.375Z,16.10
2018-04-06T08:08:47.843Z,8.37
2018-04-06T08:11:15.322Z,10.43
2018-04-06T08:13:42.775Z,9.13
2018-04-06T08:16:10.266Z,12.77
2018-04-06T08:18:37.727Z,11.73
2018-04-06T08:21:05.205Z,7.33
2018-04-06T08:23:32.666Z,11.53
2018-04-06T08:26:00.143Z,14.87
2018-04-06T08:28:27.599Z,6.90
2018-04-06T08:30:55.086Z,10.10
2018-04-06T08:33:22.547Z,15.40
2018-04-06T08:35:50.034Z,11.90
2018-04-06T08:38:17.488Z,7.90
2018-04-06T08:40:44.967Z,8.93
2018-04-06T08:43:12.432Z,8.77
2018-04-06T08:45:39.916Z,9.03
2018-04-06T08:48:07.434Z,9.43
2018-04-06T08:50:34.874Z,8.67
2018-04-06T08:53:02.330Z,8.67
2018-04-06T08:55:29.814Z,8.00
2018-04-06T08:57:57.268Z,8.40
2018-04-06T09:00:24.735Z,8.30
2018-04-06T09:02:52.193Z,9.00
2018-04-06T09:05:19.685Z,10.10
2018-04-06T09:07:47.136Z,8.37
2018-04-06T09:10:14.621Z,10.67
2018-04-06T09:12:42.086Z,10.10
2018-04-06T09:15:09.552Z,9.10
2018-04-06T09:17:37.031Z,11.30
2018-04-06T09:20:04.495Z,7.80
2018-04-06T09:22:31.980Z,6.80
2018-04-06T09:24:59.437Z,8.27
2018-04-06T09:27:26.915Z,10.77
2018-04-06T09:29:54.385Z,9.13
2018-04-06T09:32:21.868Z,8.03
2018-04-06T09:34:49.331Z,8.60
2018-04-06T09:37:16.818Z,11.20
2018-04-06T09:39:44.281Z,12.10
2018-04-06T09:42:11.762Z,10.40
2018-04-06T09:44:39.218Z,11.63
2018-04-06T09:47:06.703Z,10.57
2018-04-06T09:49:34.212Z,8.20
2018-04-06T09:52:01.898Z,13.40
2018-04-06T09:54:29.359Z,9.40
2018-04-06T09:56:56.854Z,7.43
2018-04-06T09:59:24.362Z,10.07
2018-04-06T10:02:01.768Z,8.13
2018-04-06T10:04:29.244Z,7.97
2018-04-06T10:06:56.748Z,8.87
2018-04-06T10:09:24.218Z,11.20
2018-04-06T10:11:51.695Z,8.63
2018-04-06T10:14:19.159Z,11.43
2018-04-06T10:16:46.648Z,12.70
2018-04-06T10:19:14.112Z,7.90
2018-04-06T10:21:41.605Z,6.27
2018-04-06T10:24:09.071Z,9.30
2018-04-06T10:26:36.547Z,7.30
2018-04-06T10:29:04.016Z,7.70
2018-04-06T10:31:31.582Z,8.90
2018-04-06T10:33:59.046Z,7.30
2018-04-06T10:36:26.541Z,7.70
2018-04-06T10:38:53.995Z,7.07
2018-04-06T10:41:21.474Z,8.93
2018-04-06T10:43:48.966Z,6.30
2018-04-06T10:46:16.428Z,6.07
2018-04-06T10:48:43.925Z,8.60
2018-04-06T10:51:11.428Z,5.60
2018-04-06T10:53:38.915Z,6.10
2018-04-06T10:56:06.383Z,8.53
2018-04-06T10:58:33.883Z,6.20
2018-04-06T11:01:01.344Z,6.53
2018-04-06T11:03:28.827Z,7.63
2018-04-06T11:05:56.299Z,6.57
2018-04-06T11:08:23.799Z,5.43
2018-04-06T11:10:51.260Z,7.87
2018-04-06T11:13:18.739Z,6.47
2018-04-06T11:15:46.203Z,6.63
2018-04-06T11:18:13.697Z,6.10
2018-04-06T11:20:41.166Z,7.57
2018-04-06T11:23:08.694Z,6.60
2018-04-06T11:25:36.135Z,9.10
2018-04-06T11:28:03.617Z,6.33
2018-04-06T11:30:31.075Z,7.43
2018-04-06T11:32:58.560Z,6.30
2018-04-06T11:35:26.032Z,8.27
2018-04-06T11:37:53.524Z,4.70
2018-04-06T11:40:20.986Z,7.93
2018-04-06T11:42:48.466Z,5.93
2018-04-06T11:45:15.923Z,7.23
2018-04-06T11:47:43.404Z,7.57
2018-04-06T11:50:10.867Z,8.27
2018-04-06T11:52:38.344Z,8.47
2018-04-06T11:55:05.855Z,11.47
2018-04-06T11:57:33.335Z,9.20
2018-04-06T12:00:00.799Z,9.50
2018-04-06T12:02:28.315Z,10.37
2018-04-06T12:04:55.783Z,10.33
2018-04-06T12:07:23.251Z,8.33
2018-04-06T12:09:50.736Z,8.03
2018-04-06T12:12:18.192Z,8.67
2018-04-06T12:14:45.684Z,6.03
2018-04-06T12:17:13.136Z,6.50
2018-04-06T12:19:40.619Z,7.63
2018-04-06T12:22:08.080Z,4.73
2018-04-06T12:24:35.561Z,6.07
2018-04-06T12:27:03.015Z,6.33
2018-04-06T12:29:30.499Z,5.83
2018-04-06T12:31:57.958Z,4.47
2018-04-06T12:34:25.465Z,5.77
2018-04-06T12:36:52.956Z,4.60
2018-04-06T12:39:20.664Z,6.80
2018-04-06T12:41:48.124Z,6.47
2018-04-06T12:44:15.615Z,5.57
2018-04-06T12:46:43.083Z,7.00
2018-04-06T12:49:10.560Z,5.73
2018-04-06T12:51:38.024Z,6.10
2018-04-06T12:54:05.512Z,6.50
2018-04-06T12:56:32.976Z,5.47
2018-04-06T12:59:00.465Z,6.23
2018-04-06T13:01:27.938Z,7.17
2018-04-06T13:03:55.419Z,6.40
2018-04-06T13:06:23.090Z,5.60
2018-04-06T13:08:50.568Z,5.67
2018-04-06T13:11:18.027Z,5.83
2018-04-06T13:13:45.516Z,5.17
2018-04-06T13:16:12.971Z,5.67
2018-04-06T13:18:40.456Z,4.60
2018-04-06T13:21:07.912Z,4.63
2018-04-06T13:23:35.387Z,6.43
2018-04-06T13:26:02.842Z,4.80
2018-04-06T13:28:30.298Z,4.87
2018-04-06T13:30:57.816Z,5.17
2018-04-06T13:33:25.277Z,3.90
2018-04-06T13:35:52.775Z,7.30
2018-04-06T13:38:20.234Z,5.40
2018-04-06T13:40:47.716Z,6.80
2018-04-06T13:43:15.179Z,6.47
2018-04-06T13:45:42.663Z,4.93
2018-04-06T13:48:10.132Z,7.00
2018-04-06T13:50:37.611Z,4.13
2018-04-06T13:53:05.076Z,7.00
2018-04-06T13:55:32.556Z,4.63
2018-04-06T13:58:00.011Z,8.47
2018-04-06T14:00:27.501Z,4.63
2018-04-06T14:02:54.959Z,6.30
2018-04-06T14:07:57.060Z,5.17
2018-04-06T14:10:24.556Z,5.17
2018-04-06T14:12:52.022Z,4.27
2018-04-06T14:15:19.495Z,6.07
2018-04-06T14:17:46.951Z,6.33
2018-04-06T14:20:14.432Z,5.00
2018-04-06T14:22:41.906Z,5.57
2018-04-06T14:25:09.382Z,5.67
2018-04-06T14:27:36.843Z,4.50
2018-04-06T14:30:04.325Z,4.20
2018-04-06T14:32:31.776Z,5.10
2018-04-06T14:34:59.252Z,5.43
2018-04-06T14:37:26.713Z,4.13
2018-04-06T14:39:54.202Z,4.10
2018-04-06T14:42:21.668Z,5.20
2018-04-06T14:44:49.192Z,4.77
2018-04-06T14:47:16.627Z,5.43
2018-04-06T14:49:44.135Z,5.23
2018-04-06T14:52:11.596Z,6.27
2018-04-06T14:54:39.083Z,8.10
2018-04-06T14:57:06.580Z,7.43
2018-04-06T14:59:34.041Z,6.70
2018-04-06T15:02:01.527Z,6.10
2018-04-06T15:04:28.996Z,4.53
2018-04-06T15:06:56.494Z,5.80
2018-04-06T15:09:24.030Z,6.50
2018-04-06T15:11:51.536Z,5.40
2018-04-06T15:14:18.990Z,7.37
2018-04-06T15:16:46.475Z,7.03
2018-04-06T15:19:14.776Z,7.83
2018-04-06T15:21:42.280Z,4.87
2018-04-06T15:24:09.862Z,8.33
2018-04-06T15:26:37.350Z,6.33
2018-04-06T15:29:04.824Z,5.83
2018-04-06T15:31:32.313Z,5.53
2018-04-06T15:33:59.779Z,4.70
2018-04-06T15:36:27.272Z,5.20
2018-04-06T15:38:54.788Z,5.70
2018-04-06T15:41:22.303Z,4.47
2018-04-06T15:43:53.475Z,6.43
2018-04-06T15:46:24.916Z,4.40
2018-04-06T15:48:52.376Z,5.37
2018-04-06T15:51:19.903Z,5.03
2018-04-06T15:53:47.366Z,7.97
2018-04-06T15:56:14.849Z,7.17
2018-04-06T15:58:42.325Z,5.83
2018-04-06T16:01:09.857Z,6.63
2018-04-06T16:03:37.327Z,5.37
2018-04-06T16:06:04.824Z,6.70
2018-04-06T16:08:32.290Z,6.13
2018-04-06T16:10:59.778Z,4.97
2018-04-06T16:13:27.242Z,6.97
2018-04-06T16:15:54.722Z,6.40
2018-04-06T16:18:22.182Z,4.93
2018-04-06T16:20:49.678Z,5.00
2018-04-06T16:23:17.138Z,7.03
2018-04-06T16:25:44.629Z,4.97
2018-04-06T16:28:12.096Z,4.80
2018-04-06T16:30:39.564Z,7.50
2018-04-06T16:33:07.047Z,5.20
2018-04-06T16:35:34.515Z,7.07
2018-04-06T16:38:02.007Z,4.10
2018-04-06T16:40:29.477Z,7.13
2018-04-06T16:42:56.968Z,5.73
2018-04-06T16:45:24.448Z,5.43
2018-04-06T16:47:51.929Z,7.70
2018-04-06T16:50:19.399Z,5.33
2018-04-06T16:52:46.876Z,5.57
2018-04-06T16:55:14.363Z,5.47
2018-04-06T16:57:41.852Z,6.17
2018-04-06T17:00:09.690Z,4.70
2018-04-06T17:02:37.171Z,5.67
2018-04-06T17:05:04.748Z,5.63
2018-04-06T17:07:32.348Z,5.33
2018-04-06T17:09:59.902Z,5.13
2018-04-06T17:12:27.398Z,4.63
2018-04-06T17:14:54.875Z,6.27
2018-04-06T17:17:22.445Z,6.33
2018-04-06T17:19:49.933Z,4.93
2018-04-06T17:22:19.301Z,5.77
2018-04-06T17:24:46.938Z,5.10
2018-04-06T17:27:15.000Z,4.37
2018-04-06T17:29:42.540Z,4.77
2018-04-06T17:32:10.163Z,4.67
2018-04-06T17:34:37.676Z,5.40
2018-04-06T17:37:05.261Z,5.33
2018-04-06T17:39:32.791Z,6.73
2018-04-06T17:42:00.328Z,5.53
2018-04-06T17:44:27.842Z,7.33
2018-04-06T17:46:55.376Z,5.87
2018-04-06T17:49:22.879Z,4.60
2018-04-06T17:51:50.488Z,7.37
2018-04-06T17:54:18.031Z,8.50
2018-04-06T17:56:45.583Z,8.63
2018-04-06T17:59:13.103Z,6.17
2018-04-06T18:01:40.640Z,6.47
2018-04-06T18:04:08.200Z,7.30
2018-04-06T18:06:35.675Z,8.10
2018-04-06T18:09:03.199Z,5.10
2018-04-06T18:11:30.664Z,6.63
2018-04-06T18:13:58.888Z,5.00
2018-04-06T18:16:26.395Z,6.17
2018-04-06T18:18:53.935Z,4.77
2018-04-06T18:21:21.428Z,7.17
